createdAt,value
2022-12-31T00:02:43.458Z,12.33
2022-12-31T00:05:45.763Z,12.75
2022-12-31T00:08:48.382Z,12.90
2022-12-31T00:11:50.840Z,11.65
2022-12-31T00:14:53.017Z,12.37
2022-12-31T00:17:55.240Z,11.07
2022-12-31T00:20:57.391Z,11.77
2022-12-31T00:23:59.634Z,12.80
2022-12-31T00:27:02.102Z,12.07
2022-12-31T00:30:05.064Z,12.77
2022-12-31T00:33:07.349Z,12.03
2022-12-31T00:36:11.144Z,11.75
2022-12-31T00:39:13.423Z,12.45
2022-12-31T00:42:15.682Z,12.05
2022-12-31T00:45:17.954Z,11.60
2022-12-31T00:48:20.343Z,11.60
2022-12-31T00:51:23.598Z,12.25
2022-12-31T00:54:25.908Z,11.18
2022-12-31T00:57:28.179Z,12.65
2022-12-31T01:00:30.460Z,12.00
2022-12-31T01:03:32.647Z,12.37
2022-12-31T01:06:35.243Z,11.88
2022-12-31T01:09:37.462Z,11.88
2022-12-31T01:12:39.770Z,13.30
2022-12-31T01:15:42.039Z,12.70
2022-12-31T01:18:44.317Z,12.93
2022-12-31T01:21:47.194Z,11.52
2022-12-31T01:24:49.426Z,13.00
2022-12-31T01:27:51.679Z,13.40
2022-12-31T01:30:54.120Z,13.68
2022-12-31T01:33:57.714Z,14.33
2022-12-31T01:37:00.021Z,13.40
2022-12-31T01:40:02.223Z,12.73
2022-12-31T01:43:13.547Z,13.50
2022-12-31T01:46:23.746Z,13.70
2022-12-31T01:49:27.542Z,14.13
2022-12-31T01:52:34.674Z,14.90
2022-12-31T01:55:47.644Z,13.98
2022-12-31T01:58:51.228Z,14.63
2022-12-31T02:01:53.497Z,14.25
2022-12-31T02:04:57.391Z,14.77
2022-12-31T02:07:59.756Z,15.65
2022-12-31T02:11:02.039Z,15.32
2022-12-31T02:14:06.407Z,16.00
2022-12-31T02:17:17.580Z,14.52
2022-12-31T02:20:29.596Z,17.23
2022-12-31T02:23:41.235Z,14.68
2022-12-31T02:26:43.526Z,15.85
2022-12-31T02:30:04.497Z,14.77
2022-12-31T02:33:36.235Z,15.18
2022-12-31T02:36:40.444Z,15.23
2022-12-31T02:39:43.240Z,14.77
2022-12-31T02:42:48.679Z,14.65
2022-12-31T02:46:14.125Z,14.80
2022-12-31T02:49:18.081Z,15.10
2022-12-31T02:52:35.230Z,14.70
2022-12-31T02:55:54.680Z,15.43
2022-12-31T02:59:21.652Z,15.02
2022-12-31T03:02:27.314Z,15.50
2022-12-31T03:05:32.406Z,15.50
2022-12-31T03:08:54.663Z,15.37
2022-12-31T03:12:15.639Z,14.85
2022-12-31T03:15:25.274Z,16.80
2022-12-31T03:18:46.502Z,19.17
2022-12-31T03:22:07.348Z,18.97
2022-12-31T03:25:30.767Z,16.20
2022-12-31T03:28:33.011Z,17.38
2022-12-31T03:31:35.271Z,16.42
2022-12-31T03:34:37.489Z,17.52
2022-12-31T03:37:40.021Z,16.15
2022-12-31T03:40:47.056Z,15.43
2022-12-31T03:43:49.356Z,15.15
2022-12-31T03:46:51.623Z,14.38
2022-12-31T03:49:54.028Z,14.88
2022-12-31T03:52:56.503Z,15.45
2022-12-31T03:55:58.791Z,15.40
2022-12-31T03:59:01.099Z,14.52
2022-12-31T04:02:03.489Z,14.10
2022-12-31T04:05:06.309Z,13.73
2022-12-31T04:08:08.559Z,15.20
2022-12-31T04:11:13.621Z,13.80
2022-12-31T04:14:18.302Z,15.43
2022-12-31T04:17:20.730Z,16.08
2022-12-31T04:20:22.961Z,18.33
2022-12-31T04:23:25.177Z,16.73
2022-12-31T04:26:27.693Z,15.67
2022-12-31T04:29:29.978Z,15.98
2022-12-31T04:32:32.135Z,18.30
2022-12-31T04:35:34.434Z,19.95
2022-12-31T04:38:36.871Z,17.43
2022-12-31T04:41:39.091Z,16.87
2022-12-31T04:44:41.353Z,17.10
2022-12-31T04:47:43.623Z,18.10
2022-12-31T04:50:46.679Z,17.92
2022-12-31T04:53:49.242Z,16.50
2022-12-31T04:56:51.498Z,16.73
2022-12-31T04:59:53.807Z,17.40
2022-12-31T05:02:56.063Z,18.77
2022-12-31T05:06:02.345Z,22.02
2022-12-31T05:09:04.679Z,19.50
2022-12-31T05:12:06.879Z,18.93
2022-12-31T05:15:09.342Z,18.38
2022-12-31T05:18:11.732Z,16.67
2022-12-31T05:21:18.751Z,20.58
2022-12-31T05:24:20.897Z,20.13
2022-12-31T05:27:23.375Z,18.50
2022-12-31T05:30:26.103Z,18.02
2022-12-31T05:33:28.359Z,18.48
2022-12-31T05:36:30.603Z,16.88
2022-12-31T05:39:32.886Z,17.80
2022-12-31T05:42:35.113Z,18.00
2022-12-31T05:45:37.602Z,17.17
2022-12-31T05:48:39.807Z,19.13
2022-12-31T05:51:41.995Z,17.45
2022-12-31T05:54:44.489Z,17.83
2022-12-31T05:57:46.743Z,17.17
2022-12-31T06:00:49.070Z,15.82
2022-12-31T06:03:51.357Z,16.73
2022-12-31T06:06:53.711Z,16.30
2022-12-31T06:09:55.917Z,16.40
2022-12-31T06:12:58.150Z,17.17
2022-12-31T06:16:05.408Z,15.90
2022-12-31T06:19:07.675Z,15.82
2022-12-31T06:22:09.890Z,16.35
2022-12-31T06:25:12.180Z,16.45
2022-12-31T06:28:20.118Z,15.67
2022-12-31T06:31:23.023Z,15.63
2022-12-31T06:34:25.261Z,17.55
2022-12-31T06:37:27.539Z,17.95
2022-12-31T06:40:29.919Z,20.20
2022-12-31T06:43:32.257Z,18.73
2022-12-31T06:46:34.522Z,18.83
2022-12-31T06:49:36.835Z,16.90
2022-12-31T06:52:39.025Z,18.13
2022-12-31T06:55:42.035Z,15.17
2022-12-31T06:58:44.764Z,15.10
2022-12-31T07:01:56.768Z,15.65
2022-12-31T07:04:58.982Z,16.20
2022-12-31T07:08:19.940Z,15.07
2022-12-31T07:11:23.669Z,14.27
2022-12-31T07:14:37.801Z,15.33
2022-12-31T07:17:43.088Z,14.65
2022-12-31T07:20:45.578Z,14.20
2022-12-31T07:23:47.919Z,16.38
2022-12-31T07:26:56.171Z,18.08
2022-12-31T07:30:12.822Z,18.17
2022-12-31T07:33:27.247Z,17.05
2022-12-31T07:36:44.734Z,18.25
2022-12-31T07:39:55.919Z,19.30
2022-12-31T07:43:16.939Z,19.48
2022-12-31T07:46:37.815Z,17.20
2022-12-31T07:49:42.154Z,14.80
2022-12-31T07:52:44.747Z,14.05
2022-12-31T07:55:47.245Z,13.73
2022-12-31T07:58:58.369Z,12.50
2022-12-31T08:02:19.260Z,12.37
2022-12-31T08:05:30.796Z,13.18
2022-12-31T08:08:45.453Z,13.48
2022-12-31T08:11:54.579Z,13.35
2022-12-31T08:14:56.916Z,13.95
2022-12-31T08:17:59.273Z,12.87
2022-12-31T08:21:12.691Z,13.90
2022-12-31T08:24:14.936Z,13.02
2022-12-31T08:27:32.274Z,13.38
2022-12-31T08:30:49.743Z,12.70
2022-12-31T08:34:03.749Z,12.73
2022-12-31T08:37:13.629Z,13.88
2022-12-31T08:40:15.773Z,13.65
2022-12-31T08:43:41.375Z,13.70
2022-12-31T08:46:48.628Z,13.60
2022-12-31T08:49:51.040Z,14.60
2022-12-31T08:52:53.528Z,13.52
2022-12-31T08:55:58.449Z,13.07
2022-12-31T08:59:19.383Z,13.27
2022-12-31T09:02:30.652Z,13.45
2022-12-31T09:05:37.155Z,12.93
2022-12-31T09:08:44.555Z,13.65
2022-12-31T09:11:46.791Z,13.60
2022-12-31T09:14:56.823Z,12.95
2022-12-31T09:17:59.187Z,13.70
2022-12-31T09:21:01.513Z,14.43
2022-12-31T09:24:09.212Z,13.55
2022-12-31T09:27:27.497Z,14.10
2022-12-31T09:30:34.036Z,13.07
2022-12-31T09:33:39.517Z,15.82
2022-12-31T09:36:44.250Z,14.20
2022-12-31T09:39:47.669Z,14.05
2022-12-31T09:43:02.141Z,15.20
2022-12-31T09:46:07.253Z,15.38
2022-12-31T09:49:09.546Z,15.32
2022-12-31T09:52:30.634Z,15.10
2022-12-31T09:56:02.532Z,15.13
2022-12-31T09:59:17.984Z,15.23
2022-12-31T10:02:39.222Z,13.18
2022-12-31T10:05:59.969Z,14.25
2022-12-31T10:09:02.506Z,13.97
2022-12-31T10:12:23.521Z,15.40
2022-12-31T10:15:25.715Z,14.30
2022-12-31T10:18:37.151Z,16.13
2022-12-31T10:21:39.369Z,15.95
2022-12-31T10:25:00.198Z,15.87
2022-12-31T10:28:22.774Z,16.60
2022-12-31T10:31:31.047Z,17.38
2022-12-31T10:34:47.859Z,18.13
2022-12-31T10:37:50.262Z,16.17
2022-12-31T10:40:55.630Z,18.40
2022-12-31T10:44:11.388Z,17.73
2022-12-31T10:47:16.699Z,18.45
2022-12-31T10:50:37.614Z,18.10
2022-12-31T10:53:58.205Z,17.20
2022-12-31T10:57:07.473Z,18.07
2022-12-31T11:00:10.445Z,19.00
2022-12-31T11:03:31.122Z,20.02
2022-12-31T11:07:00.045Z,18.88
2022-12-31T11:10:37.955Z,20.10
2022-12-31T11:13:59.299Z,18.73
2022-12-31T11:17:04.376Z,17.42
2022-12-31T11:20:25.681Z,18.00
2022-12-31T11:23:37.193Z,17.23
2022-12-31T11:26:51.882Z,18.45
2022-12-31T11:29:59.884Z,18.57
2022-12-31T11:33:07.824Z,17.23
2022-12-31T11:36:10.365Z,17.80
2022-12-31T11:39:12.546Z,18.08
2022-12-31T11:42:24.826Z,17.10
2022-12-31T11:45:37.833Z,16.57
2022-12-31T11:48:40.199Z,19.00
2022-12-31T11:51:57.456Z,17.15
2022-12-31T11:55:18.373Z,17.17
2022-12-31T11:58:22.258Z,18.48
2022-12-31T12:01:33.164Z,19.73
2022-12-31T12:04:35.616Z,18.02
2022-12-31T12:07:37.869Z,19.40
2022-12-31T12:10:40.139Z,19.33
2022-12-31T12:13:42.340Z,20.13
2022-12-31T12:16:44.644Z,20.03
2022-12-31T12:19:53.190Z,19.55
2022-12-31T12:22:56.853Z,18.90
2022-12-31T12:25:59.103Z,18.50
2022-12-31T12:29:17.760Z,18.33
2022-12-31T12:32:21.406Z,18.10
2022-12-31T12:35:25.905Z,18.52
2022-12-31T12:38:28.155Z,19.02
2022-12-31T12:41:30.497Z,19.83
2022-12-31T12:44:32.868Z,19.50
2022-12-31T12:47:35.263Z,18.87
2022-12-31T12:50:44.151Z,20.20
2022-12-31T12:54:00.462Z,20.30
2022-12-31T12:57:08.699Z,20.00
2022-12-31T13:00:25.261Z,19.88
2022-12-31T13:04:33.117Z,19.10
2022-12-31T13:07:28.069Z,19.85
2022-12-31T13:10:53.434Z,20.20
2022-12-31T13:13:58.749Z,19.50
2022-12-31T13:17:04.321Z,19.17
2022-12-31T13:20:22.821Z,19.27
2022-12-31T13:23:45.221Z,19.90
2022-12-31T13:26:47.399Z,19.85
2022-12-31T13:29:50.220Z,19.42
2022-12-31T13:33:01.124Z,19.55
2022-12-31T13:36:05.535Z,18.90
2022-12-31T13:39:12.569Z,19.58
2022-12-31T13:42:18.377Z,19.80
2022-12-31T13:45:23.862Z,21.90
2022-12-31T13:48:30.404Z,21.13
2022-12-31T13:51:46.130Z,19.60
2022-12-31T13:55:00.560Z,19.50
2022-12-31T13:58:13.450Z,18.70
2022-12-31T14:01:21.948Z,19.15
2022-12-31T14:04:39.286Z,18.08
2022-12-31T14:07:47.364Z,18.03
2022-12-31T14:10:52.676Z,18.20
2022-12-31T14:14:04.068Z,18.92
2022-12-31T14:17:12.494Z,18.52
2022-12-31T14:20:26.853Z,19.45
2022-12-31T14:23:47.958Z,19.13
2022-12-31T14:26:56.406Z,19.30
2022-12-31T14:30:06.411Z,21.00
2022-12-31T14:33:41.191Z,19.20
2022-12-31T14:36:50.157Z,20.05
2022-12-31T14:40:10.112Z,19.93
2022-12-31T14:43:22.552Z,19.33
2022-12-31T14:46:50.501Z,18.65
2022-12-31T14:50:08.079Z,18.92
2022-12-31T14:53:18.573Z,20.50
2022-12-31T14:56:29.299Z,20.53
2022-12-31T14:59:35.627Z,21.30
2022-12-31T15:02:48.986Z,21.45
2022-12-31T15:05:53.188Z,20.67
2022-12-31T15:09:07.481Z,20.60
2022-12-31T15:12:18.073Z,21.07
2022-12-31T15:15:24.861Z,19.83
2022-12-31T15:18:46.166Z,20.15
2022-12-31T15:21:51.537Z,22.85
2022-12-31T15:24:53.820Z,21.95
2022-12-31T15:28:00.695Z,21.57
2022-12-31T15:31:23.447Z,21.60
2022-12-31T15:34:27.774Z,21.25
2022-12-31T15:37:36.744Z,20.73
2022-12-31T15:40:46.006Z,19.67
2022-12-31T15:43:50.459Z,20.17
2022-12-31T15:46:56.434Z,21.88
2022-12-31T15:50:03.150Z,21.23
2022-12-31T15:53:06.132Z,24.10
2022-12-31T15:56:17.124Z,21.48
2022-12-31T15:59:20.692Z,22.13
2022-12-31T16:02:27.223Z,22.23
2022-12-31T16:05:34.196Z,23.58
2022-12-31T16:08:37.446Z,24.88
2022-12-31T16:11:41.786Z,24.17
2022-12-31T16:14:45.170Z,24.73
2022-12-31T16:17:57.251Z,25.42
2022-12-31T16:20:59.483Z,26.77
2022-12-31T16:24:05.883Z,27.92
2022-12-31T16:27:09.483Z,28.08
2022-12-31T16:30:22.525Z,45.47
2022-12-31T16:33:24.847Z,42.28
2022-12-31T16:36:27.025Z,37.50
2022-12-31T16:39:36.460Z,36.83
2022-12-31T16:42:44.324Z,33.90
2022-12-31T16:45:46.864Z,30.87
2022-12-31T16:48:52.020Z,30.58
2022-12-31T16:51:55.784Z,31.55
2022-12-31T16:54:58.858Z,32.40
2022-12-31T16:58:24.146Z,34.00
2022-12-31T17:01:28.484Z,35.97
2022-12-31T17:04:31.002Z,32.92
2022-12-31T17:07:33.507Z,44.50
2022-12-31T17:10:36.564Z,37.28
2022-12-31T17:13:38.877Z,54.13
2022-12-31T17:17:03.487Z,43.10
2022-12-31T17:20:11.123Z,40.83
2022-12-31T17:23:23.184Z,43.60
2022-12-31T17:26:26.782Z,40.50
2022-12-31T17:29:29.000Z,40.97
2022-12-31T17:32:36.425Z,41.17
2022-12-31T17:35:42.637Z,44.85
2022-12-31T17:38:44.895Z,150.95
2022-12-31T17:41:48.067Z,221.70
2022-12-31T17:44:50.422Z,210.18
2022-12-31T17:47:55.751Z,134.93
2022-12-31T17:50:59.686Z,80.07
2022-12-31T17:54:02.112Z,64.88
2022-12-31T17:57:04.660Z,66.00
2022-12-31T18:00:07.371Z,67.93
2022-12-31T18:03:14.699Z,56.03
2022-12-31T18:06:17.879Z,48.38
2022-12-31T18:09:20.299Z,54.20
2022-12-31T18:12:22.770Z,61.85
2022-12-31T18:15:25.112Z,71.07
2022-12-31T18:18:28.833Z,60.83
2022-12-31T18:21:36.013Z,54.53
2022-12-31T18:24:38.269Z,57.05
2022-12-31T18:27:42.094Z,56.53
2022-12-31T18:30:45.664Z,60.75
2022-12-31T18:33:48.317Z,65.70
2022-12-31T18:36:50.618Z,64.97
2022-12-31T18:39:52.903Z,64.68
2022-12-31T18:42:59.656Z,75.30
2022-12-31T18:46:05.341Z,78.45
2022-12-31T18:49:08.284Z,69.77
2022-12-31T18:52:14.567Z,72.13
2022-12-31T18:55:40.513Z,68.60
2022-12-31T18:58:43.001Z,66.93
2022-12-31T19:01:45.319Z,65.15
2022-12-31T19:04:48.499Z,66.33
2022-12-31T19:07:50.776Z,67.03
2022-12-31T19:10:53.802Z,68.60
2022-12-31T19:13:56.065Z,63.85
2022-12-31T19:20:04.580Z,61.27
2022-12-31T19:23:10.647Z,60.60
2022-12-31T19:26:17.385Z,60.20
2022-12-31T19:29:21.471Z,61.80
2022-12-31T19:32:23.628Z,64.88
2022-12-31T19:35:26.620Z,62.50
2022-12-31T19:38:29.238Z,67.53
2022-12-31T19:41:31.520Z,81.80
2022-12-31T19:44:33.750Z,82.00
2022-12-31T19:47:36.014Z,83.22
2022-12-31T19:50:40.372Z,82.17
2022-12-31T19:53:43.086Z,79.25
2022-12-31T19:56:45.277Z,91.22
2022-12-31T19:59:47.640Z,124.88
2022-12-31T20:02:50.121Z,81.18
2022-12-31T20:06:00.178Z,70.07
2022-12-31T20:09:02.898Z,76.75
2022-12-31T20:12:05.199Z,101.20
2022-12-31T20:15:07.961Z,88.35
2022-12-31T20:18:10.229Z,60.50
2022-12-31T20:21:14.347Z,70.33
2022-12-31T20:24:16.818Z,58.00
2022-12-31T20:27:19.094Z,36.55
2022-12-31T20:30:23.220Z,34.40
2022-12-31T20:33:25.561Z,33.70
2022-12-31T20:36:28.305Z,35.13
2022-12-31T20:39:30.899Z,51.83
2022-12-31T20:42:33.113Z,37.42
2022-12-31T20:45:35.377Z,31.08
2022-12-31T20:48:38.136Z,29.65
2022-12-31T20:51:40.308Z,29.27
2022-12-31T20:54:42.486Z,30.15
2022-12-31T20:57:44.826Z,28.98
2022-12-31T21:00:47.838Z,28.75
2022-12-31T21:04:06.927Z,28.02
2022-12-31T21:07:09.488Z,28.83
2022-12-31T21:10:11.763Z,30.67
2022-12-31T21:13:14.140Z,32.10
2022-12-31T21:16:16.443Z,33.30
2022-12-31T21:19:18.709Z,30.98
2022-12-31T21:22:21.195Z,30.43
2022-12-31T21:25:23.441Z,27.90
2022-12-31T21:28:26.169Z,27.50
2022-12-31T21:31:28.506Z,26.52
2022-12-31T21:34:30.781Z,26.95
2022-12-31T21:37:58.656Z,25.07
2022-12-31T21:40:55.231Z,24.02
2022-12-31T21:43:57.643Z,28.45
2022-12-31T21:47:39.801Z,28.42
2022-12-31T21:50:43.107Z,35.72
2022-12-31T21:53:45.283Z,30.90
2022-12-31T21:56:47.507Z,83.95
2022-12-31T22:00:40.505Z,48.83
2022-12-31T22:03:31.785Z,38.13
2022-12-31T22:06:35.915Z,42.35
2022-12-31T22:09:38.314Z,37.40
2022-12-31T22:12:40.637Z,32.42
2022-12-31T22:15:44.211Z,32.50
2022-12-31T22:18:46.871Z,30.08
2022-12-31T22:21:49.318Z,34.10
2022-12-31T22:24:51.476Z,31.03
2022-12-31T22:28:27.691Z,29.70
2022-12-31T22:31:17.093Z,27.75
2022-12-31T22:34:19.400Z,27.55
2022-12-31T22:37:55.016Z,28.50
2022-12-31T22:40:43.831Z,25.53
2022-12-31T22:43:47.631Z,24.60
2022-12-31T22:46:49.862Z,24.20
2022-12-31T22:49:52.178Z,23.10
2022-12-31T22:52:54.355Z,25.85
2022-12-31T22:55:57.350Z,21.40
2022-12-31T22:58:59.655Z,22.92
2022-12-31T23:02:01.917Z,24.50
2022-12-31T23:05:15.232Z,21.52
2022-12-31T23:08:23.673Z,23.75
2022-12-31T23:11:26.192Z,22.83
2022-12-31T23:14:47.182Z,24.23
2022-12-31T23:18:07.998Z,36.78
2022-12-31T23:21:28.870Z,449.13
2022-12-31T23:24:31.144Z,392.10
2022-12-31T23:27:33.308Z,341.47
2022-12-31T23:30:37.376Z,278.90
2022-12-31T23:33:39.607Z,391.33
2022-12-31T23:36:41.953Z,291.63
2022-12-31T23:39:44.216Z,449.60
2022-12-31T23:42:46.552Z,488.83
2022-12-31T23:45:51.804Z,571.65
2022-12-31T23:48:54.501Z,509.52
2022-12-31T23:51:56.761Z,477.45
2022-12-31T23:54:59.009Z,340.07
2022-12-31T23:58:01.184Z,208.07
